PWSweather.com
Personal Weather Stations
Station Observations
DEKREUPEL
Wsv De Kreupel, AndijkNL 1619 JV

Wsv De KreupelAndijkNL 1619 JV

Lat: 52.7417364, Lon: 5.1809356

Elevation: 33

Station Type: Rainwise MKiii LR

High Low Average
Temperature 58.2°F14.6°C 56.6°F13.7°C 57.3°F14.1°C
Dew Point 85.9°F29.9°C 84.0°F28.9°C 84.8°F29.3°C
Winds Calm Calm Calm Calm Calm SWCalm SW
Wind Gusts -- -- --
Humidity - - -
Pressure 30.36 in1028.1 mb 30.30 in1026.1 mb -
Precipitation 0.09 in2.3 mm - -
Hour Temp Dew Point Humidity Winds Wind Gusts Pressure Precip Precip Rate Daily Precip Total
12:04 AM 57.7°F14.3°C 85.3°F29.6°C - Calm Calm -- 30.31 in1026.4 mb 0.00 in0.0 mm 0.00 in0.0 mm 0.00 in0.0 mm
12:09 AM 57.7°F14.3°C 85.2°F29.6°C - Calm Calm -- 30.31 in1026.4 mb 0.00 in0.0 mm 0.00 in0.0 mm 0.00 in0.0 mm
12:14 AM 57.7°F14.3°C 85.2°F29.6°C - Calm Calm -- 30.31 in1026.4 mb 0.00 in0.0 mm 0.00 in0.0 mm 0.00 in0.0 mm
12:19 AM 57.7°F14.3°C 85.3°F29.6°C - Calm Calm -- 30.31 in1026.4 mb 0.00 in0.0 mm 0.00 in0.0 mm 0.00 in0.0 mm
12:24 AM 57.9°F14.4°C 85.6°F29.8°C - Calm Calm -- 30.31 in1026.4 mb 0.00 in0.0 mm 0.00 in0.0 mm 0.00 in0.0 mm
12:29 AM 57.8°F14.3°C 85.3°F29.6°C - Calm Calm -- 30.31 in1026.4 mb 0.00 in0.0 mm 0.00 in0.0 mm 0.00 in0.0 mm
12:34 AM 57.9°F14.4°C 85.6°F29.8°C - Calm Calm -- 30.31 in1026.4 mb 0.00 in0.0 mm 0.00 in0.0 mm 0.00 in0.0 mm
12:39 AM 57.8°F14.3°C 85.5°F29.7°C - Calm Calm -- 30.31 in1026.4 mb 0.00 in0.0 mm 0.00 in0.0 mm 0.00 in0.0 mm
12:44 AM 57.7°F14.3°C 85.2°F29.6°C - Calm Calm -- 30.31 in1026.4 mb 0.00 in0.0 mm 0.00 in0.0 mm 0.00 in0.0 mm
12:49 AM 57.7°F14.3°C 85.3°F29.6°C - Calm Calm -- 30.31 in1026.4 mb 0.00 in0.0 mm 0.00 in0.0 mm 0.00 in0.0 mm
12:54 AM 57.6°F14.2°C 85.2°F29.6°C - Calm Calm -- 30.31 in1026.4 mb 0.00 in0.0 mm 0.00 in0.0 mm 0.00 in0.0 mm
12:59 AM 57.7°F14.3°C 85.3°F29.6°C - Calm Calm -- 30.31 in1026.4 mb 0.00 in0.0 mm 0.00 in0.0 mm 0.00 in0.0 mm
01:04 AM 57.8°F14.3°C 85.5°F29.7°C - Calm Calm -- 30.31 in1026.4 mb 0.00 in0.0 mm 0.00 in0.0 mm 0.00 in0.0 mm
01:09 AM 57.8°F14.3°C 85.5°F29.7°C - Calm Calm -- 30.31 in1026.4 mb 0.00 in0.0 mm 0.00 in0.0 mm 0.00 in0.0 mm
01:14 AM 57.8°F14.3°C 85.5°F29.7°C - Calm Calm -- 30.31 in1026.4 mb 0.00 in0.0 mm 0.00 in0.0 mm 0.00 in0.0 mm
01:19 AM 57.8°F14.3°C 85.5°F29.7°C - Calm Calm -- 30.31 in1026.4 mb 0.00 in0.0 mm 0.00 in0.0 mm 0.00 in0.0 mm
01:24 AM 57.8°F14.3°C 85.5°F29.7°C - Calm Calm -- 30.31 in1026.4 mb 0.00 in0.0 mm 0.00 in0.0 mm 0.00 in0.0 mm
01:29 AM 57.8°F14.3°C 85.5°F29.7°C - Calm Calm -- 30.31 in1026.4 mb 0.00 in0.0 mm 0.00 in0.0 mm 0.00 in0.0 mm
01:34 AM 57.7°F14.3°C 85.3°F29.6°C - Calm Calm -- 30.31 in1026.4 mb 0.00 in0.0 mm 0.00 in0.0 mm 0.00 in0.0 mm
01:39 AM 57.6°F14.2°C 85.2°F29.6°C - Calm Calm -- 30.31 in1026.4 mb 0.00 in0.0 mm 0.00 in0.0 mm 0.00 in0.0 mm
01:44 AM 57.5°F14.2°C 85.1°F29.5°C - Calm Calm -- 30.31 in1026.4 mb 0.00 in0.0 mm 0.00 in0.0 mm 0.00 in0.0 mm
01:49 AM 57.5°F14.2°C 85.0°F29.4°C - Calm Calm -- 30.31 in1026.4 mb 0.00 in0.0 mm 0.00 in0.0 mm 0.00 in0.0 mm
01:54 AM 57.5°F14.2°C 85.1°F29.5°C - Calm Calm -- 30.31 in1026.4 mb 0.00 in0.0 mm 0.00 in0.0 mm 0.00 in0.0 mm
01:59 AM 57.5°F14.2°C 85.1°F29.5°C - Calm Calm -- 30.31 in1026.4 mb 0.00 in0.0 mm 0.00 in0.0 mm 0.00 in0.0 mm
02:04 AM 57.5°F14.2°C 85.0°F29.4°C - Calm Calm -- 30.30 in1026.1 mb 0.00 in0.0 mm 0.00 in0.0 mm 0.00 in0.0 mm
02:09 AM 57.5°F14.2°C 85.1°F29.5°C - Calm Calm -- 30.30 in1026.1 mb 0.00 in0.0 mm 0.00 in0.0 mm 0.00 in0.0 mm
02:14 AM 57.4°F14.1°C 84.9°F29.4°C - Calm Calm -- 30.30 in1026.1 mb 0.00 in0.0 mm 0.00 in0.0 mm 0.00 in0.0 mm
02:19 AM 57.5°F14.2°C 85.1°F29.5°C - Calm Calm -- 30.31 in1026.4 mb 0.00 in0.0 mm 0.00 in0.0 mm 0.00 in0.0 mm
02:24 AM 57.5°F14.2°C 85.0°F29.4°C - Calm Calm -- 30.31 in1026.4 mb 0.00 in0.0 mm 0.00 in0.0 mm 0.00 in0.0 mm
02:29 AM 57.6°F14.2°C 85.2°F29.6°C - Calm Calm -- 30.31 in1026.4 mb 0.00 in0.0 mm 0.00 in0.0 mm 0.00 in0.0 mm
02:34 AM 57.6°F14.2°C 85.2°F29.6°C - Calm Calm -- 30.31 in1026.4 mb 0.00 in0.0 mm 0.00 in0.0 mm 0.00 in0.0 mm
02:39 AM 57.6°F14.2°C 85.2°F29.6°C - Calm Calm -- 30.31 in1026.4 mb 0.00 in0.0 mm 0.00 in0.0 mm 0.00 in0.0 mm
02:44 AM 57.6°F14.2°C 85.1°F29.5°C - Calm Calm -- 30.31 in1026.4 mb 0.00 in0.0 mm 0.00 in0.0 mm 0.00 in0.0 mm
02:49 AM 57.5°F14.2°C 85.0°F29.4°C - Calm Calm -- 30.31 in1026.4 mb 0.00 in0.0 mm 0.00 in0.0 mm 0.00 in0.0 mm
02:54 AM 57.5°F14.2°C 85.1°F29.5°C - Calm Calm -- 30.31 in1026.4 mb 0.00 in0.0 mm 0.00 in0.0 mm 0.00 in0.0 mm
02:59 AM 57.5°F14.2°C 85.1°F29.5°C - Calm Calm -- 30.31 in1026.4 mb 0.00 in0.0 mm 0.00 in0.0 mm 0.00 in0.0 mm
03:04 AM 57.5°F14.2°C 85.1°F29.5°C - Calm Calm -- 30.31 in1026.4 mb 0.00 in0.0 mm 0.00 in0.0 mm 0.00 in0.0 mm
03:09 AM 57.3°F14.1°C 84.9°F29.4°C - Calm Calm -- 30.31 in1026.4 mb 0.00 in0.0 mm 0.00 in0.0 mm 0.00 in0.0 mm
03:14 AM 57.4°F14.1°C 85.0°F29.4°C - Calm Calm -- 30.31 in1026.4 mb 0.00 in0.0 mm 0.00 in0.0 mm 0.00 in0.0 mm
03:19 AM 57.3°F14.1°C 84.8°F29.3°C - Calm Calm -- 30.31 in1026.4 mb 0.00 in0.0 mm 0.00 in0.0 mm 0.00 in0.0 mm
03:24 AM 57.3°F14.1°C 84.9°F29.4°C - Calm Calm -- 30.30 in1026.1 mb 0.00 in0.0 mm 0.00 in0.0 mm 0.00 in0.0 mm
03:29 AM 57.3°F14.1°C 84.8°F29.3°C - Calm Calm -- 30.30 in1026.1 mb 0.00 in0.0 mm 0.00 in0.0 mm 0.00 in0.0 mm
03:34 AM 57.3°F14.1°C 84.8°F29.3°C - Calm Calm -- 30.30 in1026.1 mb 0.00 in0.0 mm 0.00 in0.0 mm 0.00 in0.0 mm
03:39 AM 57.3°F14.1°C 84.9°F29.4°C - Calm Calm -- 30.31 in1026.4 mb 0.00 in0.0 mm 0.00 in0.0 mm 0.00 in0.0 mm
03:44 AM 57.2°F14.0°C 84.8°F29.3°C - Calm Calm -- 30.30 in1026.1 mb 0.00 in0.0 mm 0.00 in0.0 mm 0.00 in0.0 mm
03:49 AM 57.2°F14.0°C 84.8°F29.3°C - Calm Calm -- 30.30 in1026.1 mb 0.00 in0.0 mm 0.00 in0.0 mm 0.00 in0.0 mm
03:54 AM 57.2°F14.0°C 84.8°F29.3°C - Calm Calm -- 30.30 in1026.1 mb 0.00 in0.0 mm 0.00 in0.0 mm 0.00 in0.0 mm
03:59 AM 57.2°F14.0°C 84.8°F29.3°C - Calm Calm -- 30.30 in1026.1 mb 0.00 in0.0 mm 0.00 in0.0 mm 0.00 in0.0 mm
04:04 AM 57.2°F14.0°C 84.8°F29.3°C - Calm Calm -- 30.30 in1026.1 mb 0.00 in0.0 mm 0.00 in0.0 mm 0.00 in0.0 mm
04:09 AM 57.2°F14.0°C 84.8°F29.3°C - Calm Calm -- 30.30 in1026.1 mb 0.00 in0.0 mm 0.00 in0.0 mm 0.00 in0.0 mm
04:14 AM 57.2°F14.0°C 84.8°F29.3°C - Calm Calm -- 30.31 in1026.4 mb 0.00 in0.0 mm 0.00 in0.0 mm 0.00 in0.0 mm
04:19 AM 57.2°F14.0°C 84.7°F29.3°C - Calm Calm -- 30.31 in1026.4 mb 0.00 in0.0 mm 0.00 in0.0 mm 0.00 in0.0 mm
04:24 AM 57.2°F14.0°C 84.8°F29.3°C - Calm Calm -- 30.31 in1026.4 mb 0.00 in0.0 mm 0.00 in0.0 mm 0.00 in0.0 mm
04:29 AM 57.2°F14.0°C 84.8°F29.3°C - Calm Calm -- 30.31 in1026.4 mb 0.00 in0.0 mm 0.00 in0.0 mm 0.00 in0.0 mm
04:34 AM 57.2°F14.0°C 84.8°F29.3°C - Calm Calm -- 30.31 in1026.4 mb 0.00 in0.0 mm 0.00 in0.0 mm 0.00 in0.0 mm
04:39 AM 57.2°F14.0°C 84.8°F29.3°C - Calm Calm -- 30.31 in1026.4 mb 0.00 in0.0 mm 0.00 in0.0 mm 0.00 in0.0 mm
04:44 AM 57.2°F14.0°C 84.7°F29.3°C - Calm Calm -- 30.31 in1026.4 mb 0.00 in0.0 mm 0.00 in0.0 mm 0.00 in0.0 mm
04:49 AM 57.2°F14.0°C 84.8°F29.3°C - Calm Calm -- 30.31 in1026.4 mb 0.00 in0.0 mm 0.00 in0.0 mm 0.00 in0.0 mm
04:54 AM 57.2°F14.0°C 84.8°F29.3°C - Calm Calm -- 30.31 in1026.4 mb 0.00 in0.0 mm 0.00 in0.0 mm 0.00 in0.0 mm
04:59 AM 57.2°F14.0°C 84.8°F29.3°C - Calm Calm -- 30.31 in1026.4 mb 0.00 in0.0 mm 0.00 in0.0 mm 0.00 in0.0 mm
05:04 AM 57.2°F14.0°C 84.8°F29.3°C - Calm Calm -- 30.31 in1026.4 mb 0.00 in0.0 mm 0.00 in0.0 mm 0.00 in0.0 mm
05:09 AM 57.2°F14.0°C 84.8°F29.3°C - Calm Calm -- 30.31 in1026.4 mb 0.00 in0.0 mm 0.00 in0.0 mm 0.00 in0.0 mm
05:14 AM 57.4°F14.1°C 85.0°F29.4°C - Calm Calm -- 30.31 in1026.4 mb 0.00 in0.0 mm 0.00 in0.0 mm 0.00 in0.0 mm
05:19 AM 57.5°F14.2°C 85.1°F29.5°C - Calm Calm -- 30.31 in1026.4 mb 0.00 in0.0 mm 0.00 in0.0 mm 0.00 in0.0 mm
05:24 AM 57.5°F14.2°C 85.1°F29.5°C - Calm Calm -- 30.31 in1026.4 mb 0.00 in0.0 mm 0.00 in0.0 mm 0.00 in0.0 mm
05:29 AM 57.5°F14.2°C 85.1°F29.5°C - Calm Calm -- 30.31 in1026.4 mb 0.00 in0.0 mm 0.00 in0.0 mm 0.00 in0.0 mm
05:34 AM 57.5°F14.2°C 85.1°F29.5°C - Calm Calm -- 30.31 in1026.4 mb 0.00 in0.0 mm 0.00 in0.0 mm 0.00 in0.0 mm
05:39 AM 57.6°F14.2°C 85.2°F29.6°C - Calm Calm -- 30.31 in1026.4 mb 0.00 in0.0 mm 0.00 in0.0 mm 0.00 in0.0 mm
05:44 AM 57.5°F14.2°C 85.1°F29.5°C - Calm Calm -- 30.31 in1026.4 mb 0.00 in0.0 mm 0.00 in0.0 mm 0.00 in0.0 mm
05:49 AM 57.5°F14.2°C 85.1°F29.5°C - Calm Calm -- 30.31 in1026.4 mb 0.00 in0.0 mm 0.00 in0.0 mm 0.00 in0.0 mm
05:54 AM 57.5°F14.2°C 85.1°F29.5°C - Calm Calm -- 30.31 in1026.4 mb 0.00 in0.0 mm 0.00 in0.0 mm 0.00 in0.0 mm
05:59 AM 57.5°F14.2°C 85.0°F29.4°C - Calm Calm -- 30.31 in1026.4 mb 0.00 in0.0 mm 0.00 in0.0 mm 0.00 in0.0 mm
06:04 AM 57.5°F14.2°C 85.1°F29.5°C - Calm Calm -- 30.31 in1026.4 mb 0.00 in0.0 mm 0.00 in0.0 mm 0.00 in0.0 mm
06:09 AM 57.5°F14.2°C 85.1°F29.5°C - Calm Calm -- 30.31 in1026.4 mb 0.00 in0.0 mm 0.00 in0.0 mm 0.00 in0.0 mm
06:14 AM 57.3°F14.1°C 84.9°F29.4°C - Calm Calm -- 30.31 in1026.4 mb 0.00 in0.0 mm 0.00 in0.0 mm 0.00 in0.0 mm
06:19 AM 57.3°F14.1°C 84.9°F29.4°C - Calm Calm -- 30.31 in1026.4 mb 0.00 in0.0 mm 0.00 in0.0 mm 0.00 in0.0 mm
06:24 AM 57.3°F14.1°C 84.9°F29.4°C - Calm Calm -- 30.31 in1026.4 mb 0.00 in0.0 mm 0.00 in0.0 mm 0.00 in0.0 mm
06:29 AM 57.3°F14.1°C 84.9°F29.4°C - Calm Calm -- 30.31 in1026.4 mb 0.00 in0.0 mm 0.00 in0.0 mm 0.00 in0.0 mm
06:34 AM 57.3°F14.1°C 84.9°F29.4°C - Calm Calm -- 30.31 in1026.4 mb 0.00 in0.0 mm 0.00 in0.0 mm 0.00 in0.0 mm
06:39 AM 57.3°F14.1°C 84.9°F29.4°C - Calm Calm -- 30.31 in1026.4 mb 0.00 in0.0 mm 0.00 in0.0 mm 0.00 in0.0 mm
06:44 AM 57.3°F14.1°C 84.9°F29.4°C - Calm Calm -- 30.31 in1026.4 mb 0.00 in0.0 mm 0.00 in0.0 mm 0.00 in0.0 mm
06:49 AM 57.2°F14.0°C 84.8°F29.3°C - Calm Calm -- 30.31 in1026.4 mb 0.00 in0.0 mm 0.00 in0.0 mm 0.00 in0.0 mm
06:54 AM 57.2°F14.0°C 84.7°F29.3°C - Calm Calm -- 30.31 in1026.4 mb 0.00 in0.0 mm 0.00 in0.0 mm 0.00 in0.0 mm
06:59 AM 57.2°F14.0°C 84.7°F29.3°C - Calm Calm -- 30.32 in1026.8 mb 0.00 in0.0 mm 0.00 in0.0 mm 0.00 in0.0 mm
07:04 AM 57.2°F14.0°C 84.8°F29.3°C - Calm Calm -- 30.32 in1026.8 mb 0.00 in0.0 mm 0.00 in0.0 mm 0.00 in0.0 mm
07:09 AM 57.2°F14.0°C 84.8°F29.3°C - Calm Calm -- 30.32 in1026.8 mb 0.00 in0.0 mm 0.00 in0.0 mm 0.00 in0.0 mm
07:14 AM 57.2°F14.0°C 84.8°F29.3°C - Calm Calm -- 30.32 in1026.8 mb 0.00 in0.0 mm 0.00 in0.0 mm 0.00 in0.0 mm
07:19 AM 57.2°F14.0°C 84.8°F29.3°C - Calm Calm -- 30.32 in1026.8 mb 0.00 in0.0 mm 0.00 in0.0 mm 0.00 in0.0 mm
07:24 AM 57.2°F14.0°C 84.8°F29.3°C - Calm Calm -- 30.32 in1026.8 mb 0.00 in0.0 mm 0.00 in0.0 mm 0.00 in0.0 mm
07:29 AM 57.2°F14.0°C 84.8°F29.3°C - Calm Calm -- 30.32 in1026.8 mb 0.00 in0.0 mm 0.00 in0.0 mm 0.00 in0.0 mm
07:34 AM 57.2°F14.0°C 84.8°F29.3°C - Calm Calm -- 30.32 in1026.8 mb 0.00 in0.0 mm 0.00 in0.0 mm 0.00 in0.0 mm
07:39 AM 57.2°F14.0°C 84.8°F29.3°C - Calm Calm -- 30.32 in1026.8 mb 0.00 in0.0 mm 0.00 in0.0 mm 0.00 in0.0 mm
07:44 AM 57.1°F13.9°C 84.7°F29.3°C - Calm Calm -- 30.32 in1026.8 mb 0.00 in0.0 mm 0.00 in0.0 mm 0.00 in0.0 mm
07:49 AM 57.0°F13.9°C 84.4°F29.1°C - Calm Calm -- 30.33 in1027.1 mb 0.00 in0.0 mm 0.00 in0.0 mm 0.00 in0.0 mm
07:54 AM 57.1°F13.9°C 84.7°F29.3°C - Calm Calm -- 30.33 in1027.1 mb 0.00 in0.0 mm 0.00 in0.0 mm 0.00 in0.0 mm
07:59 AM 57.0°F13.9°C 84.6°F29.2°C - Calm Calm -- 30.33 in1027.1 mb 0.00 in0.0 mm 0.00 in0.0 mm 0.00 in0.0 mm
08:04 AM 57.0°F13.9°C 84.6°F29.2°C - Calm Calm -- 30.33 in1027.1 mb 0.00 in0.0 mm 0.00 in0.0 mm 0.00 in0.0 mm
08:09 AM 57.0°F13.9°C 84.6°F29.2°C - Calm Calm -- 30.33 in1027.1 mb 0.00 in0.0 mm 0.00 in0.0 mm 0.00 in0.0 mm
08:14 AM 56.9°F13.8°C 84.4°F29.1°C - Calm Calm -- 30.33 in1027.1 mb 0.00 in0.0 mm 0.00 in0.0 mm 0.00 in0.0 mm
08:19 AM 56.8°F13.8°C 84.3°F29.1°C - Calm Calm -- 30.33 in1027.1 mb 0.00 in0.0 mm 0.00 in0.0 mm 0.00 in0.0 mm
08:24 AM 56.8°F13.8°C 84.3°F29.1°C - Calm Calm -- 30.33 in1027.1 mb 0.00 in0.0 mm 0.00 in0.0 mm 0.00 in0.0 mm
08:29 AM 56.8°F13.8°C 84.2°F29.0°C - Calm Calm -- 30.33 in1027.1 mb 0.00 in0.0 mm 0.00 in0.0 mm 0.00 in0.0 mm
08:34 AM 56.7°F13.7°C 84.2°F29.0°C - Calm Calm -- 30.34 in1027.4 mb 0.00 in0.0 mm 0.00 in0.0 mm 0.00 in0.0 mm
08:39 AM 56.7°F13.7°C 84.2°F29.0°C - Calm Calm -- 30.34 in1027.4 mb 0.00 in0.0 mm 0.00 in0.0 mm 0.00 in0.0 mm
08:44 AM 56.7°F13.7°C 84.2°F29.0°C - Calm Calm -- 30.34 in1027.4 mb 0.00 in0.0 mm 0.00 in0.0 mm 0.00 in0.0 mm
08:49 AM 56.7°F13.7°C 84.1°F28.9°C - Calm Calm -- 30.34 in1027.4 mb 0.00 in0.0 mm 0.00 in0.0 mm 0.00 in0.0 mm
08:54 AM 56.6°F13.7°C 84.1°F28.9°C - Calm Calm -- 30.34 in1027.4 mb 0.00 in0.0 mm 0.00 in0.0 mm 0.00 in0.0 mm
08:59 AM 56.6°F13.7°C 84.1°F28.9°C - Calm Calm -- 30.34 in1027.4 mb 0.00 in0.0 mm 0.00 in0.0 mm 0.00 in0.0 mm
09:04 AM 56.7°F13.7°C 84.2°F29.0°C - Calm Calm -- 30.34 in1027.4 mb 0.00 in0.0 mm 0.00 in0.0 mm 0.00 in0.0 mm
09:09 AM 56.6°F13.7°C 84.1°F28.9°C - Calm Calm -- 30.34 in1027.4 mb 0.00 in0.0 mm 0.00 in0.0 mm 0.00 in0.0 mm
09:14 AM 56.6°F13.7°C 84.1°F28.9°C - Calm Calm -- 30.34 in1027.4 mb 0.00 in0.0 mm 0.00 in0.0 mm 0.00 in0.0 mm
09:19 AM 56.6°F13.7°C 84.1°F28.9°C - Calm Calm -- 30.34 in1027.4 mb 0.00 in0.0 mm 0.00 in0.0 mm 0.00 in0.0 mm
09:24 AM 56.6°F13.7°C 84.0°F28.9°C - Calm Calm -- 30.35 in1027.8 mb 0.00 in0.0 mm 0.00 in0.0 mm 0.00 in0.0 mm
09:29 AM 56.7°F13.7°C 84.2°F29.0°C - Calm Calm -- 30.35 in1027.8 mb 0.00 in0.0 mm 0.00 in0.0 mm 0.00 in0.0 mm
09:34 AM 56.7°F13.7°C 84.2°F29.0°C - Calm Calm -- 30.35 in1027.8 mb 0.00 in0.0 mm 0.00 in0.0 mm 0.00 in0.0 mm
09:39 AM 56.7°F13.7°C 84.1°F28.9°C - Calm Calm -- 30.34 in1027.4 mb 0.00 in0.0 mm 0.00 in0.0 mm 0.00 in0.0 mm
09:44 AM 56.7°F13.7°C 84.2°F29.0°C - Calm Calm -- 30.35 in1027.8 mb 0.00 in0.0 mm 0.00 in0.0 mm 0.00 in0.0 mm
09:49 AM 56.7°F13.7°C 84.2°F29.0°C - Calm Calm -- 30.35 in1027.8 mb 0.00 in0.0 mm 0.00 in0.0 mm 0.00 in0.0 mm
09:54 AM 56.7°F13.7°C 84.2°F29.0°C - Calm Calm -- 30.35 in1027.8 mb 0.00 in0.0 mm 0.00 in0.0 mm 0.00 in0.0 mm
09:59 AM 56.7°F13.7°C 84.1°F28.9°C - Calm Calm -- 30.35 in1027.8 mb 0.00 in0.0 mm 0.00 in0.0 mm 0.00 in0.0 mm
10:04 AM 56.9°F13.8°C 84.4°F29.1°C - Calm Calm -- 30.35 in1027.8 mb 0.00 in0.0 mm 0.00 in0.0 mm 0.00 in0.0 mm
10:09 AM 56.9°F13.8°C 84.4°F29.1°C - Calm Calm -- 30.35 in1027.8 mb 0.00 in0.0 mm 0.00 in0.0 mm 0.00 in0.0 mm
10:14 AM 56.9°F13.8°C 84.4°F29.1°C - Calm Calm -- 30.35 in1027.8 mb 0.00 in0.0 mm 0.00 in0.0 mm 0.00 in0.0 mm
10:19 AM 57.0°F13.9°C 84.4°F29.1°C - Calm Calm -- 30.35 in1027.8 mb 0.00 in0.0 mm 0.00 in0.0 mm 0.00 in0.0 mm
10:24 AM 57.0°F13.9°C 84.6°F29.2°C - Calm Calm -- 30.35 in1027.8 mb 0.00 in0.0 mm 0.00 in0.0 mm 0.00 in0.0 mm
10:29 AM 57.1°F13.9°C 84.7°F29.3°C - Calm Calm -- 30.35 in1027.8 mb 0.00 in0.0 mm 0.00 in0.0 mm 0.00 in0.0 mm
10:34 AM 57.1°F13.9°C 84.6°F29.2°C - Calm Calm -- 30.35 in1027.8 mb 0.00 in0.0 mm 0.00 in0.0 mm 0.00 in0.0 mm
10:39 AM 57.2°F14.0°C 84.8°F29.3°C - Calm Calm -- 30.35 in1027.8 mb 0.00 in0.0 mm 0.00 in0.0 mm 0.00 in0.0 mm
10:44 AM 57.2°F14.0°C 84.8°F29.3°C - Calm Calm -- 30.36 in1028.1 mb 0.00 in0.0 mm 0.00 in0.0 mm 0.00 in0.0 mm
10:49 AM 57.2°F14.0°C 84.8°F29.3°C - Calm Calm -- 30.35 in1027.8 mb 0.00 in0.0 mm 0.00 in0.0 mm 0.00 in0.0 mm
10:54 AM 57.2°F14.0°C 84.8°F29.3°C - Calm Calm -- 30.36 in1028.1 mb 0.00 in0.0 mm 0.00 in0.0 mm 0.00 in0.0 mm
10:59 AM 57.1°F13.9°C 84.7°F29.3°C - Calm Calm -- 30.36 in1028.1 mb 0.00 in0.0 mm 0.00 in0.0 mm 0.00 in0.0 mm
11:04 AM 57.1°F13.9°C 84.7°F29.3°C - Calm Calm -- 30.36 in1028.1 mb 0.00 in0.0 mm 0.00 in0.0 mm 0.00 in0.0 mm
11:09 AM 57.1°F13.9°C 84.7°F29.3°C - Calm Calm -- 30.36 in1028.1 mb 0.00 in0.0 mm 0.00 in0.0 mm 0.00 in0.0 mm
11:14 AM 57.1°F13.9°C 84.7°F29.3°C - Calm Calm -- 30.36 in1028.1 mb 0.00 in0.0 mm 0.00 in0.0 mm 0.00 in0.0 mm
11:19 AM 57.1°F13.9°C 84.6°F29.2°C - Calm Calm -- 30.36 in1028.1 mb 0.00 in0.0 mm 0.00 in0.0 mm 0.00 in0.0 mm
11:24 AM 57.1°F13.9°C 84.7°F29.3°C - Calm Calm -- 30.36 in1028.1 mb 0.00 in0.0 mm 0.00 in0.0 mm 0.00 in0.0 mm
11:29 AM 57.1°F13.9°C 84.7°F29.3°C - Calm Calm -- 30.36 in1028.1 mb 0.00 in0.0 mm 0.00 in0.0 mm 0.00 in0.0 mm
11:34 AM 57.2°F14.0°C 84.8°F29.3°C - Calm Calm -- 30.36 in1028.1 mb 0.00 in0.0 mm 0.00 in0.0 mm 0.00 in0.0 mm
11:39 AM 57.2°F14.0°C 84.8°F29.3°C - Calm Calm -- 30.36 in1028.1 mb 0.00 in0.0 mm 0.00 in0.0 mm 0.00 in0.0 mm
11:44 AM 57.0°F13.9°C 84.6°F29.2°C - Calm Calm -- 30.36 in1028.1 mb 0.00 in0.0 mm 0.00 in0.0 mm 0.00 in0.0 mm
11:49 AM 57.0°F13.9°C 84.6°F29.2°C - Calm Calm -- 30.36 in1028.1 mb 0.00 in0.0 mm 0.00 in0.0 mm 0.00 in0.0 mm
11:54 AM 57.0°F13.9°C 84.6°F29.2°C - Calm Calm -- 30.36 in1028.1 mb 0.00 in0.0 mm 0.00 in0.0 mm 0.00 in0.0 mm
11:59 AM 57.1°F13.9°C 84.6°F29.2°C - Calm Calm -- 30.36 in1028.1 mb 0.00 in0.0 mm 0.00 in0.0 mm 0.00 in0.0 mm
12:04 PM 57.2°F14.0°C 84.8°F29.3°C - Calm Calm -- 30.35 in1027.8 mb 0.00 in0.0 mm 0.00 in0.0 mm 0.00 in0.0 mm
12:09 PM 57.2°F14.0°C 84.8°F29.3°C - Calm Calm -- 30.35 in1027.8 mb 0.00 in0.0 mm 0.00 in0.0 mm 0.00 in0.0 mm
12:14 PM 57.2°F14.0°C 84.8°F29.3°C - Calm Calm -- 30.35 in1027.8 mb 0.00 in0.0 mm 0.00 in0.0 mm 0.00 in0.0 mm
12:19 PM 57.2°F14.0°C 84.8°F29.3°C - Calm Calm -- 30.35 in1027.8 mb 0.00 in0.0 mm 0.00 in0.0 mm 0.00 in0.0 mm
12:24 PM 57.4°F14.1°C 85.0°F29.4°C - Calm Calm -- 30.36 in1028.1 mb 0.00 in0.0 mm 0.00 in0.0 mm 0.00 in0.0 mm
12:29 PM 57.3°F14.1°C 84.8°F29.3°C - Calm Calm -- 30.35 in1027.8 mb 0.00 in0.0 mm 0.00 in0.0 mm 0.00 in0.0 mm
12:34 PM 57.5°F14.2°C 85.1°F29.5°C - Calm Calm -- 30.36 in1028.1 mb 0.00 in0.0 mm 0.00 in0.0 mm 0.00 in0.0 mm
12:39 PM 57.5°F14.2°C 85.1°F29.5°C - Calm Calm -- 30.35 in1027.8 mb 0.00 in0.0 mm 0.00 in0.0 mm 0.00 in0.0 mm
12:44 PM 57.5°F14.2°C 85.1°F29.5°C - Calm Calm -- 30.35 in1027.8 mb 0.00 in0.0 mm 0.00 in0.0 mm 0.00 in0.0 mm
12:49 PM 57.6°F14.2°C 85.2°F29.6°C - Calm Calm -- 30.35 in1027.8 mb 0.00 in0.0 mm 0.00 in0.0 mm 0.00 in0.0 mm
12:54 PM 57.7°F14.3°C 85.3°F29.6°C - Calm Calm -- 30.35 in1027.8 mb 0.00 in0.0 mm 0.00 in0.0 mm 0.00 in0.0 mm
12:59 PM 57.7°F14.3°C 85.2°F29.6°C - Calm Calm -- 30.35 in1027.8 mb 0.00 in0.0 mm 0.00 in0.0 mm 0.00 in0.0 mm
01:04 PM 57.8°F14.3°C 85.3°F29.6°C - Calm Calm -- 30.35 in1027.8 mb 0.00 in0.0 mm 0.00 in0.0 mm 0.00 in0.0 mm
01:09 PM 58.0°F14.4°C 85.7°F29.8°C - Calm Calm -- 30.35 in1027.8 mb 0.00 in0.0 mm 0.00 in0.0 mm 0.00 in0.0 mm
01:14 PM 58.1°F14.5°C 85.8°F29.9°C - Calm Calm -- 30.35 in1027.8 mb 0.00 in0.0 mm 0.00 in0.0 mm 0.00 in0.0 mm
01:19 PM 58.0°F14.4°C 85.7°F29.8°C - Calm Calm -- 30.35 in1027.8 mb 0.00 in0.0 mm 0.00 in0.0 mm 0.00 in0.0 mm
01:24 PM 58.1°F14.5°C 85.8°F29.9°C - Calm Calm -- 30.35 in1027.8 mb 0.00 in0.0 mm 0.00 in0.0 mm 0.00 in0.0 mm
01:29 PM 58.1°F14.5°C 85.7°F29.8°C - Calm Calm -- 30.35 in1027.8 mb 0.00 in0.0 mm 0.00 in0.0 mm 0.00 in0.0 mm
01:34 PM 58.1°F14.5°C 85.7°F29.8°C - Calm Calm -- 30.34 in1027.4 mb 0.00 in0.0 mm 0.00 in0.0 mm 0.00 in0.0 mm
01:39 PM 58.2°F14.6°C 85.9°F29.9°C - Calm Calm -- 30.35 in1027.8 mb 0.00 in0.0 mm 0.00 in0.0 mm 0.00 in0.0 mm
01:44 PM 58.1°F14.5°C 85.7°F29.8°C - Calm Calm -- 30.34 in1027.4 mb 0.00 in0.0 mm 0.00 in0.0 mm 0.00 in0.0 mm
01:49 PM 58.0°F14.4°C 85.6°F29.8°C - Calm Calm -- 30.34 in1027.4 mb 0.00 in0.0 mm 0.00 in0.0 mm 0.00 in0.0 mm
01:54 PM 58.1°F14.5°C 85.8°F29.9°C - Calm Calm -- 30.34 in1027.4 mb 0.00 in0.0 mm 0.00 in0.0 mm 0.00 in0.0 mm
01:59 PM 58.1°F14.5°C 85.8°F29.9°C - Calm Calm -- 30.34 in1027.4 mb 0.00 in0.0 mm 0.00 in0.0 mm 0.00 in0.0 mm
02:04 PM 58.1°F14.5°C 85.8°F29.9°C - Calm Calm -- 30.34 in1027.4 mb 0.00 in0.0 mm 0.00 in0.0 mm 0.00 in0.0 mm
02:09 PM 58.1°F14.5°C 85.7°F29.8°C - Calm Calm -- 30.34 in1027.4 mb 0.00 in0.0 mm 0.00 in0.0 mm 0.00 in0.0 mm
02:14 PM 58.1°F14.5°C 85.8°F29.9°C - Calm Calm -- 30.34 in1027.4 mb 0.00 in0.0 mm 0.00 in0.0 mm 0.00 in0.0 mm
02:19 PM 58.1°F14.5°C 85.8°F29.9°C - Calm Calm -- 30.35 in1027.8 mb 0.00 in0.0 mm 0.00 in0.0 mm 0.00 in0.0 mm
02:24 PM 58.1°F14.5°C 85.8°F29.9°C - Calm Calm -- 30.34 in1027.4 mb 0.00 in0.0 mm 0.00 in0.0 mm 0.00 in0.0 mm
02:29 PM 58.1°F14.5°C 85.7°F29.8°C - Calm Calm -- 30.34 in1027.4 mb 0.00 in0.0 mm 0.00 in0.0 mm 0.00 in0.0 mm
02:34 PM 58.1°F14.5°C 85.7°F29.8°C - Calm Calm -- 30.35 in1027.8 mb 0.00 in0.0 mm 0.00 in0.0 mm 0.00 in0.0 mm
02:39 PM 58.1°F14.5°C 85.8°F29.9°C - Calm Calm -- 30.35 in1027.8 mb 0.00 in0.0 mm 0.00 in0.0 mm 0.00 in0.0 mm
02:44 PM 58.0°F14.4°C 85.7°F29.8°C - Calm Calm -- 30.35 in1027.8 mb 0.00 in0.0 mm 0.00 in0.0 mm 0.00 in0.0 mm
02:49 PM 57.9°F14.4°C 85.6°F29.8°C - Calm Calm -- 30.35 in1027.8 mb 0.00 in0.0 mm 0.00 in0.0 mm 0.00 in0.0 mm
02:54 PM 57.8°F14.3°C 85.5°F29.7°C - Calm Calm -- 30.34 in1027.4 mb 0.00 in0.0 mm 0.00 in0.0 mm 0.00 in0.0 mm
02:59 PM 57.8°F14.3°C 85.5°F29.7°C - Calm Calm -- 30.34 in1027.4 mb 0.00 in0.0 mm 0.00 in0.0 mm 0.00 in0.0 mm
03:04 PM 57.7°F14.3°C 85.3°F29.6°C - Calm Calm -- 30.34 in1027.4 mb 0.00 in0.0 mm 0.00 in0.0 mm 0.01 in0.3 mm
03:09 PM 57.7°F14.3°C 85.3°F29.6°C - Calm Calm -- 30.34 in1027.4 mb 0.00 in0.0 mm 0.00 in0.0 mm 0.01 in0.3 mm
03:14 PM 57.7°F14.3°C 85.2°F29.6°C - Calm Calm -- 30.34 in1027.4 mb 0.00 in0.0 mm 0.00 in0.0 mm 0.01 in0.3 mm
03:19 PM 57.7°F14.3°C 85.2°F29.6°C - Calm Calm -- 30.34 in1027.4 mb 0.00 in0.0 mm 0.00 in0.0 mm 0.01 in0.3 mm
03:24 PM 57.6°F14.2°C 85.1°F29.5°C - Calm Calm -- 30.34 in1027.4 mb 0.00 in0.0 mm 0.00 in0.0 mm 0.02 in0.5 mm
03:29 PM 57.7°F14.3°C 85.3°F29.6°C - Calm Calm -- 30.34 in1027.4 mb 0.00 in0.0 mm 0.00 in0.0 mm 0.02 in0.5 mm
03:34 PM 57.6°F14.2°C 85.2°F29.6°C - Calm Calm -- 30.34 in1027.4 mb 0.00 in0.0 mm 0.00 in0.0 mm 0.03 in0.8 mm
03:39 PM 57.6°F14.2°C 85.1°F29.5°C - Calm Calm -- 30.35 in1027.8 mb 0.00 in0.0 mm 0.00 in0.0 mm 0.04 in1.0 mm
03:44 PM 57.5°F14.2°C 85.1°F29.5°C - Calm Calm -- 30.35 in1027.8 mb 0.00 in0.0 mm 0.00 in0.0 mm 0.04 in1.0 mm
03:49 PM 57.5°F14.2°C 85.1°F29.5°C - Calm Calm -- 30.35 in1027.8 mb 0.00 in0.0 mm 0.00 in0.0 mm 0.05 in1.3 mm
03:54 PM 57.5°F14.2°C 85.1°F29.5°C - Calm Calm -- 30.35 in1027.8 mb 0.00 in0.0 mm 0.00 in0.0 mm 0.05 in1.3 mm
03:59 PM 57.5°F14.2°C 85.1°F29.5°C - Calm Calm -- 30.35 in1027.8 mb 0.00 in0.0 mm 0.00 in0.0 mm 0.05 in1.3 mm
04:04 PM 57.3°F14.1°C 84.9°F29.4°C - Calm Calm -- 30.35 in1027.8 mb 0.00 in0.0 mm 0.00 in0.0 mm 0.05 in1.3 mm
04:09 PM 57.4°F14.1°C 85.0°F29.4°C - Calm Calm -- 30.34 in1027.4 mb 0.00 in0.0 mm 0.00 in0.0 mm 0.05 in1.3 mm
04:14 PM 57.3°F14.1°C 84.8°F29.3°C - Calm Calm -- 30.35 in1027.8 mb 0.00 in0.0 mm 0.00 in0.0 mm 0.05 in1.3 mm
04:19 PM 57.3°F14.1°C 84.8°F29.3°C - Calm Calm -- 30.35 in1027.8 mb 0.00 in0.0 mm 0.00 in0.0 mm 0.05 in1.3 mm
04:24 PM 57.4°F14.1°C 85.0°F29.4°C - Calm Calm -- 30.35 in1027.8 mb 0.00 in0.0 mm 0.00 in0.0 mm 0.05 in1.3 mm
04:29 PM 57.5°F14.2°C 85.1°F29.5°C - Calm Calm -- 30.35 in1027.8 mb 0.00 in0.0 mm 0.00 in0.0 mm 0.05 in1.3 mm
04:34 PM 57.5°F14.2°C 85.1°F29.5°C - Calm Calm -- 30.34 in1027.4 mb 0.00 in0.0 mm 0.00 in0.0 mm 0.05 in1.3 mm
04:39 PM 57.5°F14.2°C 85.1°F29.5°C - Calm Calm -- 30.34 in1027.4 mb 0.00 in0.0 mm 0.00 in0.0 mm 0.05 in1.3 mm
04:44 PM 57.3°F14.1°C 84.8°F29.3°C - Calm Calm -- 30.34 in1027.4 mb 0.00 in0.0 mm 0.00 in0.0 mm 0.05 in1.3 mm
04:49 PM 57.3°F14.1°C 84.8°F29.3°C - Calm Calm -- 30.34 in1027.4 mb 0.00 in0.0 mm 0.00 in0.0 mm 0.05 in1.3 mm
04:54 PM 57.2°F14.0°C 84.7°F29.3°C - Calm Calm -- 30.35 in1027.8 mb 0.00 in0.0 mm 0.00 in0.0 mm 0.05 in1.3 mm
04:59 PM 57.2°F14.0°C 84.8°F29.3°C - Calm Calm -- 30.35 in1027.8 mb 0.00 in0.0 mm 0.00 in0.0 mm 0.05 in1.3 mm
05:04 PM 57.2°F14.0°C 84.8°F29.3°C - Calm Calm -- 30.34 in1027.4 mb 0.00 in0.0 mm 0.00 in0.0 mm 0.05 in1.3 mm
05:09 PM 57.2°F14.0°C 84.8°F29.3°C - Calm Calm -- 30.34 in1027.4 mb 0.00 in0.0 mm 0.00 in0.0 mm 0.05 in1.3 mm
05:14 PM 57.2°F14.0°C 84.7°F29.3°C - Calm Calm -- 30.34 in1027.4 mb 0.00 in0.0 mm 0.00 in0.0 mm 0.05 in1.3 mm
05:19 PM 57.2°F14.0°C 84.7°F29.3°C - Calm Calm -- 30.34 in1027.4 mb 0.00 in0.0 mm 0.00 in0.0 mm 0.05 in1.3 mm
05:24 PM 57.2°F14.0°C 84.7°F29.3°C - Calm Calm -- 30.34 in1027.4 mb 0.00 in0.0 mm 0.00 in0.0 mm 0.05 in1.3 mm
05:29 PM 57.2°F14.0°C 84.7°F29.3°C - Calm Calm -- 30.34 in1027.4 mb 0.00 in0.0 mm 0.00 in0.0 mm 0.06 in1.5 mm
05:34 PM 57.2°F14.0°C 84.8°F29.3°C - Calm Calm -- 30.34 in1027.4 mb 0.00 in0.0 mm 0.00 in0.0 mm 0.06 in1.5 mm
05:39 PM 57.2°F14.0°C 84.8°F29.3°C - Calm Calm -- 30.34 in1027.4 mb 0.00 in0.0 mm 0.00 in0.0 mm 0.06 in1.5 mm
05:44 PM 57.2°F14.0°C 84.8°F29.3°C - Calm Calm -- 30.34 in1027.4 mb 0.00 in0.0 mm 0.00 in0.0 mm 0.06 in1.5 mm
05:49 PM 57.2°F14.0°C 84.8°F29.3°C - Calm Calm -- 30.34 in1027.4 mb 0.00 in0.0 mm 0.00 in0.0 mm 0.06 in1.5 mm
05:54 PM 57.2°F14.0°C 84.8°F29.3°C - Calm Calm -- 30.34 in1027.4 mb 0.00 in0.0 mm 0.00 in0.0 mm 0.06 in1.5 mm
05:59 PM 57.2°F14.0°C 84.8°F29.3°C - Calm Calm -- 30.34 in1027.4 mb 0.00 in0.0 mm 0.00 in0.0 mm 0.06 in1.5 mm
06:04 PM 57.2°F14.0°C 84.7°F29.3°C - Calm Calm -- 30.34 in1027.4 mb 0.00 in0.0 mm 0.00 in0.0 mm 0.06 in1.5 mm
06:09 PM 57.2°F14.0°C 84.7°F29.3°C - Calm Calm -- 30.34 in1027.4 mb 0.00 in0.0 mm 0.00 in0.0 mm 0.06 in1.5 mm
06:14 PM 57.2°F14.0°C 84.7°F29.3°C - Calm Calm -- 30.34 in1027.4 mb 0.00 in0.0 mm 0.00 in0.0 mm 0.06 in1.5 mm
06:19 PM 57.2°F14.0°C 84.8°F29.3°C - Calm Calm -- 30.34 in1027.4 mb 0.00 in0.0 mm 0.00 in0.0 mm 0.06 in1.5 mm
06:24 PM 57.2°F14.0°C 84.8°F29.3°C - Calm Calm -- 30.34 in1027.4 mb 0.00 in0.0 mm 0.00 in0.0 mm 0.06 in1.5 mm
06:29 PM 57.2°F14.0°C 84.7°F29.3°C - Calm Calm -- 30.34 in1027.4 mb 0.00 in0.0 mm 0.00 in0.0 mm 0.06 in1.5 mm
06:34 PM 57.2°F14.0°C 84.8°F29.3°C - Calm Calm -- 30.34 in1027.4 mb 0.00 in0.0 mm 0.00 in0.0 mm 0.06 in1.5 mm
06:39 PM 57.2°F14.0°C 84.8°F29.3°C - Calm Calm -- 30.34 in1027.4 mb 0.00 in0.0 mm 0.00 in0.0 mm 0.06 in1.5 mm
06:44 PM 57.2°F14.0°C 84.7°F29.3°C - Calm Calm -- 30.34 in1027.4 mb 0.00 in0.0 mm 0.00 in0.0 mm 0.06 in1.5 mm
06:49 PM 57.2°F14.0°C 84.8°F29.3°C - Calm Calm -- 30.34 in1027.4 mb 0.00 in0.0 mm 0.00 in0.0 mm 0.06 in1.5 mm
06:54 PM 57.2°F14.0°C 84.8°F29.3°C - Calm Calm -- 30.34 in1027.4 mb 0.00 in0.0 mm 0.00 in0.0 mm 0.06 in1.5 mm
06:59 PM 57.2°F14.0°C 84.8°F29.3°C - Calm Calm -- 30.34 in1027.4 mb 0.00 in0.0 mm 0.00 in0.0 mm 0.06 in1.5 mm
07:04 PM 57.2°F14.0°C 84.7°F29.3°C - Calm Calm -- 30.34 in1027.4 mb 0.00 in0.0 mm 0.00 in0.0 mm 0.06 in1.5 mm
07:09 PM 57.2°F14.0°C 84.8°F29.3°C - Calm Calm -- 30.34 in1027.4 mb 0.00 in0.0 mm 0.00 in0.0 mm 0.06 in1.5 mm
07:14 PM 57.2°F14.0°C 84.7°F29.3°C - Calm Calm -- 30.34 in1027.4 mb 0.00 in0.0 mm 0.00 in0.0 mm 0.06 in1.5 mm
07:19 PM 57.2°F14.0°C 84.7°F29.3°C - Calm Calm -- 30.34 in1027.4 mb 0.00 in0.0 mm 0.00 in0.0 mm 0.06 in1.5 mm
07:24 PM 57.2°F14.0°C 84.8°F29.3°C - Calm Calm -- 30.34 in1027.4 mb 0.00 in0.0 mm 0.00 in0.0 mm 0.07 in1.8 mm
07:29 PM 57.2°F14.0°C 84.7°F29.3°C - Calm Calm -- 30.34 in1027.4 mb 0.00 in0.0 mm 0.00 in0.0 mm 0.07 in1.8 mm
07:34 PM 57.2°F14.0°C 84.8°F29.3°C - Calm Calm -- 30.34 in1027.4 mb 0.00 in0.0 mm 0.00 in0.0 mm 0.07 in1.8 mm
07:39 PM 57.2°F14.0°C 84.7°F29.3°C - Calm Calm -- 30.34 in1027.4 mb 0.00 in0.0 mm 0.00 in0.0 mm 0.07 in1.8 mm
07:44 PM 57.2°F14.0°C 84.7°F29.3°C - Calm Calm -- 30.34 in1027.4 mb 0.00 in0.0 mm 0.00 in0.0 mm 0.07 in1.8 mm
07:49 PM 57.2°F14.0°C 84.8°F29.3°C - Calm Calm -- 30.33 in1027.1 mb 0.00 in0.0 mm 0.00 in0.0 mm 0.07 in1.8 mm
07:54 PM 57.2°F14.0°C 84.7°F29.3°C - Calm Calm -- 30.34 in1027.4 mb 0.00 in0.0 mm 0.00 in0.0 mm 0.07 in1.8 mm
07:59 PM 57.2°F14.0°C 84.8°F29.3°C - Calm Calm -- 30.34 in1027.4 mb 0.00 in0.0 mm 0.00 in0.0 mm 0.07 in1.8 mm
08:04 PM 57.2°F14.0°C 84.7°F29.3°C - Calm Calm -- 30.34 in1027.4 mb 0.00 in0.0 mm 0.00 in0.0 mm 0.07 in1.8 mm
08:09 PM 57.1°F13.9°C 84.6°F29.2°C - Calm Calm -- 30.34 in1027.4 mb 0.00 in0.0 mm 0.00 in0.0 mm 0.07 in1.8 mm
08:14 PM 57.0°F13.9°C 84.4°F29.1°C - Calm Calm -- 30.34 in1027.4 mb 0.00 in0.0 mm 0.00 in0.0 mm 0.07 in1.8 mm
08:19 PM 57.0°F13.9°C 84.6°F29.2°C - Calm Calm -- 30.34 in1027.4 mb 0.00 in0.0 mm 0.00 in0.0 mm 0.07 in1.8 mm
08:24 PM 57.1°F13.9°C 84.6°F29.2°C - Calm Calm -- 30.34 in1027.4 mb 0.00 in0.0 mm 0.00 in0.0 mm 0.07 in1.8 mm
08:29 PM 57.0°F13.9°C 84.6°F29.2°C - Calm Calm -- 30.34 in1027.4 mb 0.00 in0.0 mm 0.00 in0.0 mm 0.07 in1.8 mm
08:34 PM 56.9°F13.8°C 84.4°F29.1°C - Calm Calm -- 30.34 in1027.4 mb 0.00 in0.0 mm 0.00 in0.0 mm 0.07 in1.8 mm
08:39 PM 57.0°F13.9°C 84.4°F29.1°C - Calm Calm -- 30.34 in1027.4 mb 0.00 in0.0 mm 0.00 in0.0 mm 0.07 in1.8 mm
08:44 PM 57.0°F13.9°C 84.6°F29.2°C - Calm Calm -- 30.34 in1027.4 mb 0.00 in0.0 mm 0.00 in0.0 mm 0.07 in1.8 mm
08:49 PM 57.0°F13.9°C 84.4°F29.1°C - Calm Calm -- 30.34 in1027.4 mb 0.00 in0.0 mm 0.00 in0.0 mm 0.07 in1.8 mm
08:54 PM 56.8°F13.8°C 84.2°F29.0°C - Calm Calm -- 30.34 in1027.4 mb 0.00 in0.0 mm 0.00 in0.0 mm 0.07 in1.8 mm
08:59 PM 56.8°F13.8°C 84.2°F29.0°C - Calm Calm -- 30.34 in1027.4 mb 0.00 in0.0 mm 0.00 in0.0 mm 0.08 in2.0 mm
09:04 PM 56.8°F13.8°C 84.2°F29.0°C - Calm Calm -- 30.34 in1027.4 mb 0.00 in0.0 mm 0.00 in0.0 mm 0.08 in2.0 mm
09:09 PM 56.7°F13.7°C 84.1°F28.9°C - Calm Calm -- 30.34 in1027.4 mb 0.00 in0.0 mm 0.00 in0.0 mm 0.08 in2.0 mm
09:14 PM 56.7°F13.7°C 84.2°F29.0°C - Calm Calm -- 30.34 in1027.4 mb 0.00 in0.0 mm 0.00 in0.0 mm 0.08 in2.0 mm
09:19 PM 56.8°F13.8°C 84.3°F29.1°C - Calm Calm -- 30.34 in1027.4 mb 0.00 in0.0 mm 0.00 in0.0 mm 0.08 in2.0 mm
09:24 PM 56.8°F13.8°C 84.3°F29.1°C - Calm Calm -- 30.34 in1027.4 mb 0.00 in0.0 mm 0.00 in0.0 mm 0.08 in2.0 mm
09:29 PM 57.0°F13.9°C 84.4°F29.1°C - Calm Calm -- 30.34 in1027.4 mb 0.00 in0.0 mm 0.00 in0.0 mm 0.08 in2.0 mm
09:34 PM 56.8°F13.8°C 84.2°F29.0°C - Calm Calm -- 30.34 in1027.4 mb 0.00 in0.0 mm 0.00 in0.0 mm 0.08 in2.0 mm
09:39 PM 56.9°F13.8°C 84.4°F29.1°C - Calm Calm -- 30.34 in1027.4 mb 0.00 in0.0 mm 0.00 in0.0 mm 0.08 in2.0 mm
09:44 PM 56.8°F13.8°C 84.2°F29.0°C - Calm Calm -- 30.34 in1027.4 mb 0.00 in0.0 mm 0.00 in0.0 mm 0.08 in2.0 mm
09:49 PM 56.7°F13.7°C 84.1°F28.9°C - Calm Calm -- 30.34 in1027.4 mb 0.00 in0.0 mm 0.00 in0.0 mm 0.08 in2.0 mm
09:54 PM 56.8°F13.8°C 84.3°F29.1°C - Calm Calm -- 30.34 in1027.4 mb 0.00 in0.0 mm 0.00 in0.0 mm 0.08 in2.0 mm
09:59 PM 56.8°F13.8°C 84.2°F29.0°C - Calm Calm -- 30.34 in1027.4 mb 0.00 in0.0 mm 0.00 in0.0 mm 0.08 in2.0 mm
10:04 PM 56.7°F13.7°C 84.1°F28.9°C - Calm Calm -- 30.34 in1027.4 mb 0.00 in0.0 mm 0.00 in0.0 mm 0.08 in2.0 mm
10:09 PM 56.7°F13.7°C 84.1°F28.9°C - Calm Calm -- 30.34 in1027.4 mb 0.00 in0.0 mm 0.00 in0.0 mm 0.08 in2.0 mm
10:14 PM 56.7°F13.7°C 84.1°F28.9°C - Calm Calm -- 30.33 in1027.1 mb 0.00 in0.0 mm 0.00 in0.0 mm 0.08 in2.0 mm
10:19 PM 56.7°F13.7°C 84.1°F28.9°C - Calm Calm -- 30.33 in1027.1 mb 0.00 in0.0 mm 0.00 in0.0 mm 0.08 in2.0 mm
10:24 PM 56.7°F13.7°C 84.1°F28.9°C - Calm Calm -- 30.33 in1027.1 mb 0.00 in0.0 mm 0.00 in0.0 mm 0.08 in2.0 mm
10:29 PM 56.7°F13.7°C 84.2°F29.0°C - Calm Calm -- 30.33 in1027.1 mb 0.00 in0.0 mm 0.00 in0.0 mm 0.08 in2.0 mm
10:34 PM 56.7°F13.7°C 84.1°F28.9°C - Calm Calm -- 30.33 in1027.1 mb 0.00 in0.0 mm 0.00 in0.0 mm 0.08 in2.0 mm
10:39 PM 56.7°F13.7°C 84.2°F29.0°C - Calm Calm -- 30.33 in1027.1 mb 0.00 in0.0 mm 0.00 in0.0 mm 0.08 in2.0 mm
10:44 PM 56.7°F13.7°C 84.1°F28.9°C - Calm Calm -- 30.33 in1027.1 mb 0.00 in0.0 mm 0.00 in0.0 mm 0.08 in2.0 mm
10:49 PM 56.7°F13.7°C 84.2°F29.0°C - Calm Calm -- 30.33 in1027.1 mb 0.00 in0.0 mm 0.00 in0.0 mm 0.08 in2.0 mm
10:54 PM 56.7°F13.7°C 84.2°F29.0°C - Calm Calm -- 30.33 in1027.1 mb 0.00 in0.0 mm 0.00 in0.0 mm 0.08 in2.0 mm
10:59 PM 56.7°F13.7°C 84.2°F29.0°C - Calm Calm -- 30.33 in1027.1 mb 0.00 in0.0 mm 0.00 in0.0 mm 0.08 in2.0 mm
11:04 PM 56.7°F13.7°C 84.2°F29.0°C - Calm Calm -- 30.33 in1027.1 mb 0.00 in0.0 mm 0.00 in0.0 mm 0.08 in2.0 mm
11:09 PM 56.7°F13.7°C 84.1°F28.9°C - Calm Calm -- 30.33 in1027.1 mb 0.00 in0.0 mm 0.00 in0.0 mm 0.08 in2.0 mm
11:14 PM 56.7°F13.7°C 84.1°F28.9°C - Calm Calm -- 30.33 in1027.1 mb 0.00 in0.0 mm 0.00 in0.0 mm 0.08 in2.0 mm
11:19 PM 56.8°F13.8°C 84.2°F29.0°C - Calm Calm -- 30.33 in1027.1 mb 0.00 in0.0 mm 0.00 in0.0 mm 0.08 in2.0 mm
11:24 PM 56.8°F13.8°C 84.3°F29.1°C - Calm Calm -- 30.33 in1027.1 mb 0.00 in0.0 mm 0.00 in0.0 mm 0.08 in2.0 mm
11:29 PM 56.7°F13.7°C 84.2°F29.0°C - Calm Calm -- 30.33 in1027.1 mb 0.00 in0.0 mm 0.00 in0.0 mm 0.08 in2.0 mm
11:34 PM 56.7°F13.7°C 84.2°F29.0°C - Calm Calm -- 30.32 in1026.8 mb 0.00 in0.0 mm 0.00 in0.0 mm 0.08 in2.0 mm
11:39 PM 56.7°F13.7°C 84.2°F29.0°C - Calm Calm -- 30.32 in1026.8 mb 0.00 in0.0 mm 0.00 in0.0 mm 0.09 in2.3 mm
11:44 PM 56.7°F13.7°C 84.2°F29.0°C - Calm Calm -- 30.32 in1026.8 mb 0.00 in0.0 mm 0.00 in0.0 mm 0.09 in2.3 mm
11:49 PM 56.7°F13.7°C 84.2°F29.0°C - Calm Calm -- 30.32 in1026.8 mb 0.00 in0.0 mm 0.00 in0.0 mm 0.09 in2.3 mm
11:54 PM 56.7°F13.7°C 84.1°F28.9°C - Calm Calm -- 30.32 in1026.8 mb 0.00 in0.0 mm 0.00 in0.0 mm 0.09 in2.3 mm